PWSweather.com
Personal Weather Stations
Station Observations
OPENSRS
Liberty Village, Toronto, ON M6K 3M1

Liberty VillageToronto, ON M6K 3M1

Lat: 43.63831, Lon: -79.42566

Elevation: 303

Station Type: Davis Instruments Vantage Pro 2

Latest ConditionsUpdated 1:03:06 AM EDT Thursday, May 5, 2016
Currently Today's Max Today's Min Today's Average
Temperature 53.7°F12.1°C 53.8°F12.1°C 53.4°F11.9°C 53.6°F12.0°C
Dew Point 45.3°F7.4°C 45.4°F7.4°C 44.3°F6.8°C 44.7°F7.1°C
Winds 1.0 mph NE1.6 kmh NE 7.0 mph E11.3 kmh E - 1.7 mph 2.7 kmh
Wind Gusts 10.0 mph16.1 kmh 13.0 mph20.9 kmh - -
Humidity 73% 73% 71% 72%
Pressure 29.76 in1007.8 mb 29.76 in1007.8 mb 29.76 in1007.8 mb -
Hour Temp Dew Point Humidity Winds Wind Gusts Pressure Precip Precip Rate Daily Precip Total
01:03 AM 53.7°F12.1°C 45.3°F7.4°C 73% 1.0 mph NE1.6 kmh NE 10.0 mph16.1 kmh 29.76 in1007.8 mb 0.00 in0.0 mm 0.00 in0.0 mm 0.00 in0.0 mm
01:00 AM 53.7°F12.1°C 45.3°F7.4°C 73% 1.0 mph NE1.6 kmh NE 2.0 mph3.2 kmh 29.76 in1007.8 mb 0.00 in0.0 mm 0.00 in0.0 mm 0.00 in0.0 mm
12:59 AM 53.7°F12.1°C 45.3°F7.4°C 73% 4.0 mph NE6.4 kmh NE 13.0 mph20.9 kmh 29.76 in1007.8 mb 0.00 in0.0 mm 0.00 in0.0 mm 0.00 in0.0 mm
12:58 AM 53.8°F12.1°C 45.4°F7.4°C 73% 1.0 mph NE1.6 kmh NE 13.0 mph20.9 kmh 29.76 in1007.8 mb 0.00 in0.0 mm 0.00 in0.0 mm 0.00 in0.0 mm
12:55 AM 53.7°F12.1°C 45.3°F7.4°C 73% 2.0 mph NE3.2 kmh NE 13.0 mph20.9 kmh 29.76 in1007.8 mb 0.00 in0.0 mm 0.00 in0.0 mm 0.00 in0.0 mm
12:54 AM 53.7°F12.1°C 45.3°F7.4°C 73% 1.0 mph NE1.6 kmh NE 13.0 mph20.9 kmh 29.76 in1007.8 mb 0.00 in0.0 mm 0.00 in0.0 mm 0.00 in0.0 mm
12:53 AM 53.7°F12.1°C 45.3°F7.4°C 73% Calm Calm 13.0 mph20.9 kmh 29.76 in1007.8 mb 0.00 in0.0 mm 0.00 in0.0 mm 0.00 in0.0 mm
12:50 AM 53.6°F12.0°C 45.2°F7.3°C 73% Calm Calm 13.0 mph20.9 kmh 29.76 in1007.8 mb 0.00 in0.0 mm 0.00 in0.0 mm 0.00 in0.0 mm
12:49 AM 53.6°F12.0°C 45.2°F7.3°C 73% Calm Calm 13.0 mph20.9 kmh 29.76 in1007.8 mb 0.00 in0.0 mm 0.00 in0.0 mm 0.00 in0.0 mm
12:48 AM 53.6°F12.0°C 45.2°F7.3°C 73% Calm Calm 11.0 mph17.7 kmh 29.76 in1007.8 mb 0.00 in0.0 mm 0.00 in0.0 mm 0.00 in0.0 mm
12:45 AM 53.6°F12.0°C 44.8°F7.1°C 72% 2.0 mph E3.2 kmh E 11.0 mph17.7 kmh 29.76 in1007.8 mb 0.00 in0.0 mm 0.00 in0.0 mm 0.00 in0.0 mm
12:44 AM 53.6°F12.0°C 44.8°F7.1°C 72% 2.0 mph E3.2 kmh E 11.0 mph17.7 kmh 29.76 in1007.8 mb 0.00 in0.0 mm 0.00 in0.0 mm 0.00 in0.0 mm
12:43 AM 53.6°F12.0°C 44.8°F7.1°C 72% 1.0 mph E1.6 kmh E 11.0 mph17.7 kmh 29.76 in1007.8 mb 0.00 in0.0 mm 0.00 in0.0 mm 0.00 in0.0 mm
12:40 AM 53.6°F12.0°C 44.8°F7.1°C 72% 6.0 mph E9.7 kmh E 11.0 mph17.7 kmh 29.76 in1007.8 mb 0.00 in0.0 mm 0.00 in0.0 mm 0.00 in0.0 mm
12:39 AM 53.6°F12.0°C 44.8°F7.1°C 72% 1.0 mph E1.6 kmh E 11.0 mph17.7 kmh 29.76 in1007.8 mb 0.00 in0.0 mm 0.00 in0.0 mm 0.00 in0.0 mm
12:38 AM 53.6°F12.0°C 44.8°F7.1°C 72% 1.0 mph E1.6 kmh E 11.0 mph17.7 kmh 29.76 in1007.8 mb 0.00 in0.0 mm 0.00 in0.0 mm 0.00 in0.0 mm
12:35 AM 53.6°F12.0°C 44.8°F7.1°C 72% 7.0 mph E11.3 kmh E 11.0 mph17.7 kmh 29.76 in1007.8 mb 0.00 in0.0 mm 0.00 in0.0 mm 0.00 in0.0 mm
12:34 AM 53.6°F12.0°C 44.8°F7.1°C 72% Calm Calm 11.0 mph17.7 kmh 29.76 in1007.8 mb 0.00 in0.0 mm 0.00 in0.0 mm 0.00 in0.0 mm
12:33 AM 53.6°F12.0°C 44.8°F7.1°C 72% 1.0 mph E1.6 kmh E 11.0 mph17.7 kmh 29.76 in1007.8 mb 0.00 in0.0 mm 0.00 in0.0 mm 0.00 in0.0 mm
12:30 AM 53.6°F12.0°C 44.8°F7.1°C 72% 1.0 mph E1.6 kmh E 11.0 mph17.7 kmh 29.76 in1007.8 mb 0.00 in0.0 mm 0.00 in0.0 mm 0.00 in0.0 mm
12:29 AM 53.5°F11.9°C 44.7°F7.1°C 72% 2.0 mph E3.2 kmh E 11.0 mph17.7 kmh 29.76 in1007.8 mb 0.00 in0.0 mm 0.00 in0.0 mm 0.00 in0.0 mm
12:28 AM 53.5°F11.9°C 44.7°F7.1°C 72% 4.0 mph E6.4 kmh E 11.0 mph17.7 kmh 29.76 in1007.8 mb 0.00 in0.0 mm 0.00 in0.0 mm 0.00 in0.0 mm
12:25 AM 53.5°F11.9°C 44.7°F7.1°C 72% 4.0 mph E6.4 kmh E 11.0 mph17.7 kmh 29.76 in1007.8 mb 0.00 in0.0 mm 0.00 in0.0 mm 0.00 in0.0 mm
12:24 AM 53.5°F11.9°C 44.7°F7.1°C 72% 1.0 mph E1.6 kmh E 11.0 mph17.7 kmh 29.76 in1007.8 mb 0.00 in0.0 mm 0.00 in0.0 mm 0.00 in0.0 mm
12:23 AM 53.4°F11.9°C 44.6°F7.0°C 72% Calm Calm 11.0 mph17.7 kmh 29.76 in1007.8 mb 0.00 in0.0 mm 0.00 in0.0 mm 0.00 in0.0 mm
12:20 AM 53.4°F11.9°C 44.3°F6.8°C 71% Calm Calm 11.0 mph17.7 kmh 29.76 in1007.8 mb 0.00 in0.0 mm 0.00 in0.0 mm 0.00 in0.0 mm
12:19 AM 53.5°F11.9°C 44.3°F6.8°C 71% 4.0 mph E6.4 kmh E 11.0 mph17.7 kmh 29.76 in1007.8 mb 0.00 in0.0 mm 0.00 in0.0 mm 0.00 in0.0 mm
12:18 AM 53.5°F11.9°C 44.3°F6.8°C 71% Calm Calm 11.0 mph17.7 kmh 29.76 in1007.8 mb 0.00 in0.0 mm 0.00 in0.0 mm 0.00 in0.0 mm
12:15 AM 53.5°F11.9°C 44.3°F6.8°C 71% 2.0 mph E3.2 kmh E 11.0 mph17.7 kmh 29.76 in1007.8 mb 0.00 in0.0 mm 0.00 in0.0 mm 0.00 in0.0 mm
12:14 AM 53.5°F11.9°C 44.3°F6.8°C 71% 1.0 mph E1.6 kmh E 11.0 mph17.7 kmh 29.76 in1007.8 mb 0.00 in0.0 mm 0.00 in0.0 mm 0.00 in0.0 mm
12:13 AM 53.5°F11.9°C 44.3°F6.8°C 71% 2.0 mph E3.2 kmh E 9.0 mph14.5 kmh 29.76 in1007.8 mb 0.00 in0.0 mm 0.00 in0.0 mm 0.00 in0.0 mm
12:10 AM 53.5°F11.9°C 44.3°F6.8°C 71% 6.0 mph E9.7 kmh E 9.0 mph14.5 kmh 29.76 in1007.8 mb 0.00 in0.0 mm 0.00 in0.0 mm 0.00 in0.0 mm
12:09 AM 53.4°F11.9°C 44.3°F6.8°C 71% 4.0 mph E6.4 kmh E 9.0 mph14.5 kmh 29.76 in1007.8 mb 0.00 in0.0 mm 0.00 in0.0 mm 0.00 in0.0 mm
12:08 AM 53.4°F11.9°C 44.3°F6.8°C 71% 1.0 mph E1.6 kmh E 9.0 mph14.5 kmh 29.76 in1007.8 mb 0.00 in0.0 mm 0.00 in0.0 mm 0.00 in0.0 mm
12:05 AM 53.4°F11.9°C 44.3°F6.8°C 71% Calm Calm 5.0 mph8.0 kmh 29.76 in1007.8 mb 0.00 in0.0 mm 0.00 in0.0 mm 0.00 in0.0 mm
12:04 AM 53.4°F11.9°C 44.3°F6.8°C 71% 1.0 mph ESE1.6 kmh ESE 2.0 mph3.2 kmh 29.76 in1007.8 mb 0.00 in0.0 mm 0.00 in0.0 mm 0.00 in0.0 mm
12:03 AM 53.5°F11.9°C 44.3°F6.8°C 71% 1.0 mph ESE1.6 kmh ESE 2.0 mph3.2 kmh 29.76 in1007.8 mb 0.00 in0.0 mm 0.00 in0.0 mm 0.00 in0.0 mm
12:00 AM 53.5°F11.9°C 44.3°F6.8°C 71% Calm Calm -- 29.76 in1007.8 mb 0.00 in0.0 mm 0.00 in0.0 mm 0.00 in0.0 mm